South Pass, Louisiana
Current Conditions -  °F | °C
As of 4:07 AM on Sunday 23 Nov 2014 (Local Time) from KBVE Reporting Station
Scattered Clouds Scattered Clouds  
Wind Chill: 66°   Ceiling: Unl
Heat Index: 66°   Visibility: 7mi
Dew Point: 66°   Wind: 7mph
Humidity: 100%   Direction: 120°ESE
Pressure: 29.74"   Gusts: NA
Location:  29.2037°N, 89.3875°W
Report Text: KBVE 231007Z AUTO 12006KT 7SM FEW007 SCT120 19/19 A2974 RMK AO2 PRESFR T01890189
Loading
Personal Weather Stations






























Interactive Weather Map New forecast layout! Learn more

10-Day Weather Forecast

Advertisements
Track Severe Weather on mobile